createdAt,value
2022-09-22T00:01:32.774Z,68.49
2022-09-22T00:04:03.680Z,68.43
2022-09-22T00:06:35.293Z,68.72
2022-09-22T00:09:03.506Z,68.07
2022-09-22T00:11:37.561Z,67.82
2022-09-22T00:14:13.398Z,68.24
2022-09-22T00:16:44.994Z,68.48
2022-09-22T00:19:16.253Z,68.36
2022-09-22T00:21:44.827Z,68.18
2022-09-22T00:24:13.037Z,68.24
2022-09-22T00:26:41.284Z,68.12
2022-09-22T00:29:09.867Z,68.04
2022-09-22T00:31:39.567Z,67.76
2022-09-22T00:34:07.698Z,67.43
2022-09-22T00:36:35.511Z,66.86
2022-09-22T00:39:03.767Z,67.86
2022-09-22T00:41:36.367Z,68.35
2022-09-22T00:44:26.116Z,68.97
2022-09-22T00:46:58.765Z,68.69
2022-09-22T00:50:00.817Z,68.53
2022-09-22T00:52:33.417Z,68.29
2022-09-22T00:55:04.663Z,68.06
2022-09-22T00:57:34.467Z,68.34
2022-09-22T01:00:05.877Z,67.50
2022-09-22T01:02:33.957Z,67.76
2022-09-22T01:05:02.245Z,68.09
2022-09-22T01:07:31.182Z,67.54
2022-09-22T01:09:59.875Z,67.52
2022-09-22T01:12:29.378Z,68.47
2022-09-22T01:15:24.612Z,68.61
2022-09-22T01:18:13.645Z,69.03
2022-09-22T01:21:15.129Z,68.29
2022-09-22T01:24:10.898Z,67.98
2022-09-22T01:26:47.240Z,67.57
2022-09-22T01:29:36.398Z,67.43
2022-09-22T01:32:17.150Z,67.48
2022-09-22T01:34:51.942Z,68.39
2022-09-22T01:37:54.310Z,68.24
2022-09-22T01:40:33.581Z,68.58
2022-09-22T01:43:46.159Z,68.61
2022-09-22T01:46:19.542Z,67.76
2022-09-22T01:48:49.504Z,69.81
2022-09-22T01:51:18.713Z,70.43
2022-09-22T01:53:56.168Z,69.26
2022-09-22T01:56:26.039Z,68.66
2022-09-22T01:58:58.248Z,68.33
2022-09-22T02:01:29.613Z,69.85
2022-09-22T02:04:04.298Z,70.19
2022-09-22T02:06:43.469Z,69.10
2022-09-22T02:09:13.197Z,68.88
2022-09-22T02:11:41.786Z,68.81
2022-09-22T02:14:09.893Z,69.60
2022-09-22T02:16:37.783Z,69.55
2022-09-22T02:19:13.439Z,68.89
2022-09-22T02:21:45.198Z,69.60
2022-09-22T02:24:39.972Z,69.14
2022-09-22T02:27:11.843Z,68.40
2022-09-22T02:29:46.587Z,69.44
2022-09-22T02:32:16.598Z,70.01
2022-09-22T02:34:45.880Z,69.58
2022-09-22T02:37:13.801Z,68.70
2022-09-22T02:40:03.385Z,68.48
2022-09-22T02:42:35.304Z,68.62
2022-09-22T02:45:13.629Z,69.83
2022-09-22T02:48:00.429Z,69.56
2022-09-22T02:50:30.002Z,69.02
2022-09-22T02:52:58.744Z,68.65
2022-09-22T02:55:26.720Z,68.18
2022-09-22T02:57:54.790Z,68.80
2022-09-22T03:00:22.852Z,68.99
2022-09-22T03:02:50.993Z,68.85
2022-09-22T03:05:18.961Z,69.93
2022-09-22T03:07:46.718Z,69.29
2022-09-22T03:10:14.590Z,69.05
2022-09-22T03:13:09.183Z,69.35
2022-09-22T03:15:31.776Z,69.46
2022-09-22T03:17:59.620Z,69.42
2022-09-22T03:20:27.546Z,69.63
2022-09-22T03:22:55.386Z,69.38
2022-09-22T03:25:23.281Z,69.89
2022-09-22T03:27:51.161Z,69.25
2022-09-22T03:30:19.060Z,69.29
2022-09-22T03:32:47.519Z,69.49
2022-09-22T03:35:15.844Z,69.24
2022-09-22T03:37:44.389Z,69.66
2022-09-22T03:40:12.495Z,69.51
2022-09-22T03:42:40.453Z,69.33
2022-09-22T03:45:09.442Z,69.60
2022-09-22T03:47:37.176Z,69.56
2022-09-22T03:50:05.516Z,69.43
2022-09-22T03:52:33.595Z,69.55
2022-09-22T03:55:03.288Z,70.15
2022-09-22T03:57:31.872Z,69.46
2022-09-22T03:59:59.590Z,70.03
2022-09-22T04:02:27.695Z,69.49
2022-09-22T04:04:55.731Z,69.18
2022-09-22T04:07:24.289Z,69.52
2022-09-22T04:09:52.697Z,69.40
2022-09-22T04:12:20.487Z,69.24
2022-09-22T04:14:48.298Z,69.47
2022-09-22T04:17:15.979Z,70.05
2022-09-22T04:19:44.113Z,69.74
2022-09-22T04:22:12.257Z,69.56
2022-09-22T04:24:39.967Z,69.82
2022-09-22T04:27:19.448Z,70.08
2022-09-22T04:29:49.741Z,69.51
2022-09-22T04:32:18.260Z,69.70
2022-09-22T04:37:27.417Z,69.77
2022-09-22T04:39:55.581Z,69.18
2022-09-22T04:42:23.363Z,69.22
2022-09-22T04:44:51.213Z,69.71
2022-09-22T04:47:19.410Z,69.92
2022-09-22T04:49:47.222Z,69.28
2022-09-22T04:52:15.214Z,69.38
2022-09-22T04:54:43.910Z,69.44
2022-09-22T04:57:11.820Z,69.69
2022-09-22T04:59:39.573Z,69.18
2022-09-22T05:02:07.858Z,69.40
2022-09-22T05:04:36.197Z,69.17
2022-09-22T05:07:05.190Z,69.29
2022-09-22T05:09:33.388Z,69.43
2022-09-22T05:12:01.474Z,69.13
2022-09-22T05:14:29.637Z,68.94
2022-09-22T05:16:57.399Z,68.83
2022-09-22T05:19:25.574Z,69.02
2022-09-22T05:21:54.102Z,69.02
2022-09-22T05:24:22.153Z,68.99
2022-09-22T05:26:50.504Z,69.37
2022-09-22T05:29:18.376Z,69.14
2022-09-22T05:31:46.290Z,69.30
2022-09-22T05:34:14.370Z,69.03
2022-09-22T05:36:42.531Z,69.14
2022-09-22T05:39:10.417Z,68.82
2022-09-22T05:41:38.623Z,68.68
2022-09-22T05:44:06.369Z,68.90
2022-09-22T05:46:34.462Z,68.96
2022-09-22T05:49:02.424Z,69.13
2022-09-22T05:51:30.994Z,69.43
2022-09-22T05:53:59.010Z,69.04
2022-09-22T05:56:27.029Z,68.82
2022-09-22T05:58:54.703Z,69.03
2022-09-22T06:01:22.666Z,68.65
2022-09-22T06:03:50.433Z,68.77
2022-09-22T06:06:18.957Z,68.65
2022-09-22T06:08:49.166Z,68.40
2022-09-22T06:11:17.056Z,68.45
2022-09-22T06:13:45.112Z,68.47
2022-09-22T06:16:13.300Z,68.43
2022-09-22T06:18:41.511Z,68.37
2022-09-22T06:21:09.709Z,68.32
2022-09-22T06:23:42.595Z,68.40
2022-09-22T06:26:11.168Z,68.10
2022-09-22T06:28:38.965Z,68.21
2022-09-22T06:31:07.218Z,68.00
2022-09-22T06:33:35.862Z,67.93
2022-09-22T06:36:08.051Z,67.86
2022-09-22T06:38:35.913Z,68.01
2022-09-22T06:41:06.944Z,67.96
2022-09-22T06:43:38.080Z,68.01
2022-09-22T06:46:06.326Z,68.06
2022-09-22T06:48:34.586Z,67.86
2022-09-22T06:51:02.325Z,67.66
2022-09-22T06:53:30.197Z,67.36
2022-09-22T06:56:00.416Z,67.31
2022-09-22T06:58:29.122Z,67.01
2022-09-22T07:00:59.212Z,66.96
2022-09-22T07:03:27.219Z,66.62
2022-09-22T07:05:57.454Z,66.73
2022-09-22T07:08:25.787Z,66.93
2022-09-22T07:10:55.011Z,66.79
2022-09-22T07:13:24.839Z,66.72
2022-09-22T07:15:52.759Z,66.79
2022-09-22T07:18:20.619Z,66.85
2022-09-22T07:20:48.366Z,67.07
2022-09-22T07:23:20.983Z,66.96
2022-09-22T07:25:59.451Z,66.79
2022-09-22T07:28:28.871Z,66.04
2022-09-22T07:31:01.749Z,66.06
2022-09-22T07:33:29.633Z,66.16
2022-09-22T07:36:08.829Z,65.85
2022-09-22T07:38:37.241Z,65.74
2022-09-22T07:41:09.873Z,65.64
2022-09-22T07:43:39.091Z,65.74
2022-09-22T07:46:07.976Z,65.76
2022-09-22T07:48:37.572Z,65.35
2022-09-22T07:51:14.273Z,65.64
2022-09-22T07:53:43.598Z,65.68
2022-09-22T07:56:15.159Z,65.82
2022-09-22T07:58:50.198Z,65.89
2022-09-22T08:01:19.813Z,66.08
2022-09-22T08:03:47.849Z,65.97
2022-09-22T08:06:18.389Z,65.81
2022-09-22T08:08:52.361Z,65.90
2022-09-22T08:11:37.177Z,65.68
2022-09-22T08:14:08.083Z,65.11
2022-09-22T08:16:38.252Z,64.74
2022-09-22T08:19:12.614Z,63.87
2022-09-22T08:21:49.178Z,62.45
2022-09-22T08:24:22.003Z,63.10
2022-09-22T08:26:52.373Z,62.48
2022-09-22T08:29:22.120Z,62.77
2022-09-22T08:31:51.515Z,61.04
2022-09-22T08:34:20.262Z,61.56
2022-09-22T08:36:49.194Z,64.03
2022-09-22T08:39:18.200Z,58.82
2022-09-22T08:42:09.268Z,56.31
2022-09-22T08:44:57.190Z,59.35
2022-09-22T08:48:06.673Z,57.70
2022-09-22T08:50:58.847Z,58.48
2022-09-22T08:53:32.302Z,55.05
2022-09-22T08:56:23.224Z,58.75
2022-09-22T08:59:03.047Z,60.34
2022-09-22T09:01:49.787Z,58.67
2022-09-22T09:04:42.592Z,58.96
2022-09-22T09:07:16.135Z,59.31
2022-09-22T09:09:50.316Z,58.00
2022-09-22T09:12:34.728Z,52.74
2022-09-22T09:15:30.332Z,49.85
2022-09-22T09:18:02.381Z,48.07
2022-09-22T09:20:40.158Z,39.67
2022-09-22T09:23:18.903Z,42.38
2022-09-22T09:25:50.317Z,43.89
2022-09-22T09:28:34.077Z,45.70
2022-09-22T09:31:18.374Z,44.19
2022-09-22T09:33:52.703Z,45.91
2022-09-22T09:36:23.233Z,45.72
2022-09-22T09:38:54.694Z,41.49
2022-09-22T09:41:32.819Z,39.88
2022-09-22T09:44:01.593Z,38.53
2022-09-22T09:47:03.393Z,34.94
2022-09-22T09:49:31.399Z,38.63
2022-09-22T09:52:00.838Z,38.31
2022-09-22T09:54:29.457Z,37.22
2022-09-22T09:57:10.492Z,36.58
2022-09-22T10:00:00.619Z,39.51
2022-09-22T10:02:34.777Z,39.13
2022-09-22T10:05:14.034Z,38.05
2022-09-22T10:07:47.028Z,38.65
2022-09-22T10:10:36.277Z,36.50
2022-09-22T10:13:04.397Z,32.77
2022-09-22T10:15:37.819Z,28.81
2022-09-22T10:18:24.198Z,30.42
2022-09-22T10:21:04.049Z,29.84
2022-09-22T10:23:34.849Z,29.34
2022-09-22T10:26:17.902Z,27.24
2022-09-22T10:28:50.408Z,30.60
2022-09-22T10:31:20.641Z,31.19
2022-09-22T10:33:59.916Z,31.57
2022-09-22T10:36:29.428Z,32.72
2022-09-22T10:38:59.724Z,33.44
2022-09-22T10:41:34.242Z,33.95
2022-09-22T10:44:27.757Z,35.49
2022-09-22T10:47:11.501Z,36.92
2022-09-22T10:50:10.693Z,38.42
2022-09-22T10:52:51.223Z,39.76
2022-09-22T10:55:25.882Z,40.70
2022-09-22T10:58:08.664Z,42.46
2022-09-22T11:00:39.255Z,43.20
2022-09-22T11:03:26.232Z,44.71
2022-09-22T11:06:32.006Z,44.94
2022-09-22T11:12:39.664Z,44.58
2022-09-22T11:15:11.685Z,44.35
2022-09-22T11:18:01.484Z,44.27
2022-09-22T11:20:34.608Z,43.59
2022-09-22T11:23:30.175Z,43.03
2022-09-22T11:26:16.750Z,43.26
2022-09-22T11:28:57.319Z,43.38
2022-09-22T11:31:31.422Z,43.41
2022-09-22T11:34:12.971Z,42.82
2022-09-22T11:36:53.921Z,41.86
2022-09-22T11:39:34.237Z,42.14
2022-09-22T11:42:59.433Z,42.46
2022-09-22T11:45:39.192Z,42.74
2022-09-22T11:48:19.013Z,43.43
2022-09-22T11:50:55.722Z,44.13
2022-09-22T11:53:32.884Z,44.88
2022-09-22T11:56:16.009Z,45.33
2022-09-22T11:58:44.765Z,45.90
2022-09-22T12:01:20.509Z,43.79
2022-09-22T12:04:09.075Z,43.73
2022-09-22T12:06:41.514Z,43.87
2022-09-22T12:09:19.774Z,44.22
2022-09-22T12:11:47.854Z,44.73
2022-09-22T12:14:15.909Z,45.39
2022-09-22T12:16:54.405Z,46.41
2022-09-22T12:19:41.499Z,47.29
2022-09-22T12:22:24.512Z,47.98
2022-09-22T12:24:52.198Z,48.52
2022-09-22T12:27:26.347Z,48.76
2022-09-22T12:30:03.894Z,48.46
2022-09-22T12:32:41.902Z,48.91
2022-09-22T12:35:34.039Z,49.56
2022-09-22T12:38:03.660Z,50.11
2022-09-22T12:40:37.223Z,50.73
2022-09-22T12:43:06.070Z,51.16
2022-09-22T12:45:36.540Z,52.07
2022-09-22T12:48:14.518Z,53.26
2022-09-22T12:50:44.372Z,53.74
2022-09-22T12:53:21.564Z,54.76
2022-09-22T12:55:50.534Z,54.55
2022-09-22T12:58:18.557Z,56.43
2022-09-22T13:00:47.798Z,55.64
2022-09-22T13:03:30.196Z,56.58
2022-09-22T13:05:59.961Z,55.36
2022-09-22T13:08:33.957Z,56.41
2022-09-22T13:11:03.341Z,56.28
2022-09-22T13:13:31.791Z,56.73
2022-09-22T13:16:02.058Z,57.72
2022-09-22T13:18:33.022Z,56.64
2022-09-22T13:21:13.184Z,57.29
2022-09-22T13:23:58.740Z,57.38
2022-09-22T13:26:40.925Z,57.79
2022-09-22T13:29:21.404Z,57.40
2022-09-22T13:31:57.961Z,56.16
2022-09-22T13:34:29.338Z,55.81
2022-09-22T13:37:04.311Z,55.62
2022-09-22T13:39:34.798Z,55.68
2022-09-22T13:42:06.685Z,56.05
2022-09-22T13:44:37.110Z,55.67
2022-09-22T13:47:07.861Z,55.62
2022-09-22T13:49:44.710Z,54.76
2022-09-22T13:52:21.638Z,54.73
2022-09-22T13:54:52.902Z,54.75
2022-09-22T13:57:24.218Z,54.79
2022-09-22T13:59:52.657Z,55.14
2022-09-22T14:02:28.186Z,55.17
2022-09-22T14:05:07.247Z,55.07
2022-09-22T14:07:49.483Z,55.07
2022-09-22T14:10:27.787Z,55.21
2022-09-22T14:12:56.826Z,55.66
2022-09-22T14:15:43.798Z,55.83
2022-09-22T14:18:21.958Z,55.81
2022-09-22T14:20:49.885Z,56.24
2022-09-22T14:23:33.299Z,56.58
2022-09-22T14:26:04.209Z,56.26
2022-09-22T14:28:35.467Z,56.66
2022-09-22T14:31:15.798Z,57.20
2022-09-22T14:33:45.627Z,57.37
2022-09-22T14:36:19.876Z,57.55
2022-09-22T14:39:03.784Z,57.48
2022-09-22T14:41:36.989Z,57.62
2022-09-22T14:44:26.716Z,57.75
2022-09-22T14:47:09.506Z,57.76
2022-09-22T14:49:43.264Z,57.51
2022-09-22T14:52:30.812Z,57.93
2022-09-22T14:55:06.758Z,57.68
2022-09-22T14:57:35.595Z,57.81
2022-09-22T15:00:23.017Z,57.99
2022-09-22T15:02:53.776Z,58.09
2022-09-22T15:05:30.608Z,58.33
2022-09-22T15:07:58.949Z,59.20
2022-09-22T15:10:35.888Z,59.11
2022-09-22T15:13:29.709Z,59.34
2022-09-22T15:15:57.702Z,59.37
2022-09-22T15:18:30.401Z,61.00
2022-09-22T15:21:09.565Z,60.30
2022-09-22T15:23:44.749Z,58.40
2022-09-22T15:26:25.132Z,58.45
2022-09-22T15:28:55.025Z,58.70
2022-09-22T15:31:27.244Z,59.72
2022-09-22T15:34:02.089Z,60.44
2022-09-22T15:36:32.881Z,60.65
2022-09-22T15:39:07.029Z,60.76
2022-09-22T15:41:35.578Z,60.47
2022-09-22T15:44:03.630Z,58.68
2022-09-22T15:46:34.524Z,59.25
2022-09-22T15:49:16.920Z,59.87
2022-09-22T15:51:44.902Z,60.40
2022-09-22T15:54:14.670Z,60.38
2022-09-22T15:56:44.325Z,59.17
2022-09-22T15:59:22.913Z,58.95
2022-09-22T16:01:51.991Z,59.17
2022-09-22T16:04:20.829Z,60.95
2022-09-22T16:06:54.353Z,60.94
2022-09-22T16:09:22.541Z,59.01
2022-09-22T16:11:50.624Z,58.95
2022-09-22T16:14:18.755Z,59.94
2022-09-22T16:16:46.627Z,61.63
2022-09-22T16:19:14.488Z,62.23
2022-09-22T16:21:52.821Z,61.14
2022-09-22T16:24:22.803Z,58.22
2022-09-22T16:26:54.259Z,58.75
2022-09-22T16:29:22.416Z,59.78
2022-09-22T16:31:51.239Z,62.15
2022-09-22T16:34:19.148Z,63.71
2022-09-22T16:36:47.163Z,63.42
2022-09-22T16:39:14.906Z,61.23
2022-09-22T16:41:46.329Z,60.98
2022-09-22T16:44:15.637Z,60.02
2022-09-22T16:46:43.483Z,59.63
2022-09-22T16:49:13.803Z,61.87
2022-09-22T16:51:48.866Z,62.20
2022-09-22T16:54:18.612Z,63.02
2022-09-22T16:56:49.114Z,62.39
2022-09-22T16:59:19.214Z,60.60
2022-09-22T17:01:47.734Z,58.11
2022-09-22T17:04:16.864Z,58.83
2022-09-22T17:06:45.422Z,61.22
2022-09-22T17:09:14.471Z,61.41
2022-09-22T17:11:45.289Z,64.48
2022-09-22T17:14:15.546Z,61.48
2022-09-22T17:16:49.771Z,60.45
2022-09-22T17:19:23.246Z,60.83
2022-09-22T17:21:52.871Z,59.77
2022-09-22T17:24:21.786Z,59.80
2022-09-22T17:26:52.083Z,60.82
2022-09-22T17:29:26.441Z,62.25
2022-09-22T17:31:57.344Z,61.48
2022-09-22T17:34:28.405Z,60.84
2022-09-22T17:36:57.417Z,61.83
2022-09-22T17:39:26.720Z,60.19
2022-09-22T17:41:55.198Z,60.20
2022-09-22T17:44:25.315Z,61.09
2022-09-22T17:47:11.829Z,61.07
2022-09-22T17:49:58.762Z,60.97
2022-09-22T17:52:29.597Z,60.63
2022-09-22T17:55:14.237Z,60.56
2022-09-22T17:57:43.678Z,60.92
2022-09-22T18:00:13.296Z,63.09
2022-09-22T18:02:41.588Z,62.32
2022-09-22T18:05:12.559Z,62.92
2022-09-22T18:07:41.260Z,62.33
2022-09-22T18:10:15.160Z,62.06
2022-09-22T18:12:44.210Z,62.36
2022-09-22T18:15:13.449Z,62.37
2022-09-22T18:17:42.554Z,60.77
2022-09-22T18:20:16.959Z,59.66
2022-09-22T18:22:49.152Z,58.95
2022-09-22T18:25:23.123Z,62.01
2022-09-22T18:27:51.087Z,63.38
2022-09-22T18:30:19.667Z,62.50
2022-09-22T18:32:48.921Z,62.06
2022-09-22T18:35:17.051Z,61.43
2022-09-22T18:37:46.490Z,61.37
2022-09-22T18:40:16.190Z,61.85
2022-09-22T18:42:44.862Z,61.65
2022-09-22T18:45:14.364Z,60.46
2022-09-22T18:47:43.908Z,59.38
2022-09-22T18:50:12.415Z,61.55
2022-09-22T18:52:43.294Z,61.60
2022-09-22T18:55:14.056Z,61.41
2022-09-22T18:57:42.406Z,63.29
2022-09-22T19:00:11.702Z,61.32
2022-09-22T19:02:39.808Z,61.63
2022-09-22T19:05:08.166Z,60.39
2022-09-22T19:07:43.542Z,59.81
2022-09-22T19:10:14.852Z,61.62
2022-09-22T19:12:43.015Z,63.40
2022-09-22T19:15:18.917Z,64.08
2022-09-22T19:17:49.385Z,63.64
2022-09-22T19:20:21.958Z,63.35
2022-09-22T19:22:50.660Z,61.82
2022-09-22T19:25:21.620Z,62.05
2022-09-22T19:27:52.556Z,60.67
2022-09-22T19:30:24.830Z,60.80
2022-09-22T19:32:54.546Z,62.55
2022-09-22T19:35:22.775Z,61.47
2022-09-22T19:37:51.932Z,61.82
2022-09-22T19:40:24.265Z,61.70
2022-09-22T19:42:53.178Z,61.35
2022-09-22T19:45:21.886Z,61.68
2022-09-22T19:47:49.809Z,60.13
2022-09-22T19:50:17.956Z,59.70
2022-09-22T19:52:45.695Z,61.87
2022-09-22T19:55:13.518Z,64.05
2022-09-22T19:57:41.882Z,64.73
2022-09-22T20:00:18.064Z,64.43
2022-09-22T20:02:45.938Z,63.05
2022-09-22T20:05:19.337Z,62.09
2022-09-22T20:07:48.239Z,61.81
2022-09-22T20:10:18.912Z,62.24
2022-09-22T20:12:46.689Z,62.64
2022-09-22T20:15:15.793Z,61.27
2022-09-22T20:17:46.143Z,60.77
2022-09-22T20:20:16.208Z,61.17
2022-09-22T20:22:46.690Z,60.99
2022-09-22T20:25:22.694Z,62.02
2022-09-22T20:27:50.901Z,61.95
2022-09-22T20:30:19.476Z,63.16
2022-09-22T20:32:47.590Z,62.29
2022-09-22T20:35:17.935Z,62.27
2022-09-22T20:37:45.701Z,62.08
2022-09-22T20:40:18.812Z,61.99
2022-09-22T20:42:48.662Z,62.81
2022-09-22T20:45:18.675Z,63.08
2022-09-22T20:47:46.866Z,61.73
2022-09-22T20:50:14.879Z,62.10
2022-09-22T20:52:43.226Z,61.73
2022-09-22T20:55:11.085Z,62.05
2022-09-22T20:57:40.603Z,61.59
2022-09-22T21:00:08.982Z,61.55
2022-09-22T21:02:36.825Z,60.19
2022-09-22T21:05:05.246Z,61.23
2022-09-22T21:07:33.890Z,61.76
2022-09-22T21:10:20.419Z,61.60
2022-09-22T21:12:50.662Z,61.85
2022-09-22T21:15:21.532Z,63.01
2022-09-22T21:17:49.809Z,64.33
2022-09-22T21:20:17.537Z,62.93
2022-09-22T21:22:45.726Z,62.56
2022-09-22T21:25:13.498Z,63.22
2022-09-22T21:27:41.520Z,63.22
2022-09-22T21:30:09.983Z,64.21
2022-09-22T21:32:38.736Z,64.25
2022-09-22T21:35:06.897Z,64.17
2022-09-22T21:37:34.670Z,64.27
2022-09-22T21:40:02.721Z,64.07
2022-09-22T21:42:31.381Z,63.83
2022-09-22T21:44:59.393Z,64.01
2022-09-22T21:47:27.146Z,63.35
2022-09-22T21:49:54.824Z,63.99
2022-09-22T21:52:22.895Z,64.18
2022-09-22T21:54:50.750Z,64.26
2022-09-22T21:57:18.663Z,64.09
2022-09-22T21:59:46.611Z,64.26
2022-09-22T22:02:14.478Z,64.15
2022-09-22T22:04:42.329Z,64.18
2022-09-22T22:07:11.907Z,64.13
2022-09-22T22:09:39.663Z,63.94
2022-09-22T22:12:08.951Z,63.80
2022-09-22T22:14:36.766Z,64.41
2022-09-22T22:17:05.630Z,64.46
2022-09-22T22:19:34.662Z,64.03
2022-09-22T22:22:02.457Z,64.50
2022-09-22T22:24:40.995Z,64.64
2022-09-22T22:27:10.527Z,64.82
2022-09-22T22:29:40.784Z,64.63
2022-09-22T22:32:10.445Z,65.04
2022-09-22T22:34:38.195Z,64.65
2022-09-22T22:37:09.601Z,64.79
2022-09-22T22:39:38.320Z,64.79
2022-09-22T22:42:07.027Z,65.13
2022-09-22T22:44:35.391Z,64.70
2022-09-22T22:47:03.692Z,64.72
2022-09-22T22:49:32.773Z,64.98
2022-09-22T22:52:00.632Z,64.40
2022-09-22T22:54:28.418Z,64.93
2022-09-22T22:56:56.594Z,64.78
2022-09-22T22:59:24.379Z,64.08
2022-09-22T23:01:52.384Z,64.04
2022-09-22T23:04:21.312Z,64.65
2022-09-22T23:06:49.254Z,64.78
2022-09-22T23:09:17.233Z,65.16
2022-09-22T23:11:46.222Z,65.12
2022-09-22T23:14:16.604Z,65.22
2022-09-22T23:16:46.931Z,65.29
2022-09-22T23:19:17.316Z,65.36
2022-09-22T23:21:46.439Z,65.09
2022-09-22T23:24:16.441Z,64.98
2022-09-22T23:26:45.186Z,65.38
2022-09-22T23:29:13.196Z,65.59
2022-09-22T23:31:41.156Z,65.19
2022-09-22T23:34:08.878Z,64.93
2022-09-22T23:36:37.130Z,65.23
2022-09-22T23:39:05.179Z,65.17
2022-09-22T23:41:34.492Z,65.08
2022-09-22T23:44:03.209Z,64.73
2022-09-22T23:46:31.784Z,64.94
2022-09-22T23:49:00.466Z,65.29
2022-09-22T23:51:28.629Z,65.09
2022-09-22T23:53:57.280Z,65.30
2022-09-22T23:56:26.083Z,64.90
2022-09-22T23:58:53.995Z,65.77
